sensor_id;sensor_type;location;lat;lon;timestamp;pressure;altitude;pressure_sealevel;temperature;humidity
68859;BME280;55864;49.238;8.092;2023-08-06T00:01:30;98538.16;;;16.62;84.44
68859;BME280;55864;49.238;8.092;2023-08-06T00:03:32;98530.81;;;16.77;84.02
68859;BME280;55864;49.238;8.092;2023-08-06T00:05:32;98533.06;;;16.67;83.08
68859;BME280;55864;49.238;8.092;2023-08-06T00:07:33;98531.03;;;16.69;84.13
68859;BME280;55864;49.238;8.092;2023-08-06T00:09:33;98526.50;;;16.37;84.89
68859;BME280;55864;49.238;8.092;2023-08-06T00:11:34;98526.66;;;16.29;85.91
68859;BME280;55864;49.238;8.092;2023-08-06T00:13:34;98523.22;;;16.35;84.68
68859;BME280;55864;49.238;8.092;2023-08-06T00:15:35;98522.59;;;16.33;85.46
68859;BME280;55864;49.238;8.092;2023-08-06T00:17:35;98531.22;;;16.48;85.00
68859;BME280;55864;49.238;8.092;2023-08-06T00:19:37;98522.41;;;16.41;84.99
68859;BME280;55864;49.238;8.092;2023-08-06T00:21:38;98516.13;;;16.48;85.17
68859;BME280;55864;49.238;8.092;2023-08-06T00:23:38;98519.72;;;16.28;85.52
68859;BME280;55864;49.238;8.092;2023-08-06T00:25:39;98515.84;;;16.17;86.28
68859;BME280;55864;49.238;8.092;2023-08-06T00:27:39;98515.25;;;16.28;85.45
68859;BME280;55864;49.238;8.092;2023-08-06T00:29:41;98512.16;;;16.18;85.96
68859;BME280;55864;49.238;8.092;2023-08-06T00:31:41;98513.22;;;16.43;85.25
68859;BME280;55864;49.238;8.092;2023-08-06T00:33:42;98506.63;;;16.00;86.45
68859;BME280;55864;49.238;8.092;2023-08-06T00:35:44;98514.75;;;15.85;87.75
68859;BME280;55864;49.238;8.092;2023-08-06T00:37:45;98507.69;;;16.19;85.71
68859;BME280;55864;49.238;8.092;2023-08-06T00:39:45;98504.97;;;15.92;87.09
68859;BME280;55864;49.238;8.092;2023-08-06T00:41:46;98512.97;;;16.12;86.70
68859;BME280;55864;49.238;8.092;2023-08-06T00:43:46;98512.31;;;15.90;88.28
68859;BME280;55864;49.238;8.092;2023-08-06T00:45:47;98507.63;;;15.92;88.03
68859;BME280;55864;49.238;8.092;2023-08-06T00:47:47;98505.34;;;15.76;88.97
68859;BME280;55864;49.238;8.092;2023-08-06T00:49:48;98509.09;;;15.48;90.61
68859;BME280;55864;49.238;8.092;2023-08-06T00:51:50;98506.81;;;15.45;91.25
68859;BME280;55864;49.238;8.092;2023-08-06T00:53:52;98505.66;;;15.26;91.77
68859;BME280;55864;49.238;8.092;2023-08-06T00:55:53;98497.31;;;15.29;91.49
68859;BME280;55864;49.238;8.092;2023-08-06T00:57:54;98501.00;;;15.28;92.02
68859;BME280;55864;49.238;8.092;2023-08-06T00:59:55;98492.59;;;15.52;90.13
68859;BME280;55864;49.238;8.092;2023-08-06T01:01:55;98489.56;;;15.21;90.66
68859;BME280;55864;49.238;8.092;2023-08-06T01:03:56;98486.75;;;15.29;90.91
68859;BME280;55864;49.238;8.092;2023-08-06T01:05:56;98483.81;;;15.45;90.24
68859;BME280;55864;49.238;8.092;2023-08-06T01:08:12;98482.41;;;15.49;90.51
68859;BME280;55864;49.238;8.092;2023-08-06T01:10:24;98477.38;;;15.27;91.36
68859;BME280;55864;49.238;8.092;2023-08-06T01:12:38;98474.88;;;15.12;91.84
68859;BME280;55864;49.238;8.092;2023-08-06T01:14:47;98473.34;;;15.37;90.97
68859;BME280;55864;49.238;8.092;2023-08-06T01:16:49;98473.75;;;15.34;90.39
68859;BME280;55864;49.238;8.092;2023-08-06T01:18:51;98462.72;;;15.24;90.90
68859;BME280;55864;49.238;8.092;2023-08-06T01:20:52;98458.66;;;15.28;90.98
68859;BME280;55864;49.238;8.092;2023-08-06T01:22:53;98454.69;;;15.45;90.90
68859;BME280;55864;49.238;8.092;2023-08-06T01:24:54;98456.72;;;15.43;90.04
68859;BME280;55864;49.238;8.092;2023-08-06T01:27:02;98450.16;;;15.80;88.29
68859;BME280;55864;49.238;8.092;2023-08-06T01:29:10;98447.06;;;15.70;88.02
68859;BME280;55864;49.238;8.092;2023-08-06T01:31:18;98435.09;;;15.40;89.53
68859;BME280;55864;49.238;8.092;2023-08-06T01:33:22;98426.63;;;15.44;90.22
68859;BME280;55864;49.238;8.092;2023-08-06T01:35:25;98430.38;;;15.76;89.12
68859;BME280;55864;49.238;8.092;2023-08-06T01:37:29;98437.78;;;16.07;87.53
68859;BME280;55864;49.238;8.092;2023-08-06T01:39:32;98432.03;;;16.03;86.86
68859;BME280;55864;49.238;8.092;2023-08-06T01:41:33;98437.53;;;16.01;87.09
68859;BME280;55864;49.238;8.092;2023-08-06T01:43:33;98436.94;;;16.26;85.47
68859;BME280;55864;49.238;8.092;2023-08-06T01:45:34;98435.09;;;16.00;85.91
68859;BME280;55864;49.238;8.092;2023-08-06T01:47:34;98434.28;;;15.99;86.26
68859;BME280;55864;49.238;8.092;2023-08-06T01:49:35;98437.34;;;15.96;85.78
68859;BME280;55864;49.238;8.092;2023-08-06T01:51:36;98436.09;;;15.92;86.60
68859;BME280;55864;49.238;8.092;2023-08-06T01:53:38;98437.31;;;15.90;86.59
68859;BME280;55864;49.238;8.092;2023-08-06T01:55:38;98436.88;;;15.73;87.00
68859;BME280;55864;49.238;8.092;2023-08-06T01:57:39;98437.31;;;15.83;86.30
68859;BME280;55864;49.238;8.092;2023-08-06T01:59:39;98437.66;;;15.67;87.38
68859;BME280;55864;49.238;8.092;2023-08-06T02:01:40;98432.59;;;15.79;87.15
68859;BME280;55864;49.238;8.092;2023-08-06T02:03:40;98431.97;;;15.64;87.98
68859;BME280;55864;49.238;8.092;2023-08-06T02:05:41;98427.53;;;15.77;87.55
68859;BME280;55864;49.238;8.092;2023-08-06T02:07:42;98430.16;;;15.77;87.27
68859;BME280;55864;49.238;8.092;2023-08-06T02:09:44;98425.06;;;15.76;87.65
68859;BME280;55864;49.238;8.092;2023-08-06T02:11:45;98422.81;;;15.66;87.87
68859;BME280;55864;49.238;8.092;2023-08-06T02:13:46;98426.25;;;15.60;88.58
68859;BME280;55864;49.238;8.092;2023-08-06T02:15:51;98427.50;;;15.64;88.55
68859;BME280;55864;49.238;8.092;2023-08-06T02:17:51;98432.78;;;15.64;88.93
68859;BME280;55864;49.238;8.092;2023-08-06T02:19:52;98430.19;;;15.84;87.10
68859;BME280;55864;49.238;8.092;2023-08-06T02:21:52;98421.41;;;15.77;87.62
68859;BME280;55864;49.238;8.092;2023-08-06T02:23:53;98421.44;;;15.96;86.43
68859;BME280;55864;49.238;8.092;2023-08-06T02:25:59;98422.66;;;15.94;86.61
68859;BME280;55864;49.238;8.092;2023-08-06T02:27:59;98417.78;;;16.17;85.06
68859;BME280;55864;49.238;8.092;2023-08-06T02:30:00;98417.19;;;16.09;84.78
68859;BME280;55864;49.238;8.092;2023-08-06T02:32:00;98415.75;;;16.19;83.90
68859;BME280;55864;49.238;8.092;2023-08-06T02:34:01;98421.63;;;15.88;82.78
68859;BME280;55864;49.238;8.092;2023-08-06T02:36:02;98413.47;;;15.70;83.24
68859;BME280;55864;49.238;8.092;2023-08-06T02:38:03;98420.22;;;15.92;82.18
68859;BME280;55864;49.238;8.092;2023-08-06T02:40:04;98411.66;;;15.90;81.02
68859;BME280;55864;49.238;8.092;2023-08-06T02:42:07;98416.94;;;15.90;81.03
68859;BME280;55864;49.238;8.092;2023-08-06T02:44:07;98412.06;;;15.87;80.98
68859;BME280;55864;49.238;8.092;2023-08-06T02:46:08;98415.09;;;15.84;81.21
68859;BME280;55864;49.238;8.092;2023-08-06T02:48:09;98418.97;;;15.82;81.42
68859;BME280;55864;49.238;8.092;2023-08-06T02:50:09;98414.91;;;15.92;81.17
68859;BME280;55864;49.238;8.092;2023-08-06T02:52:10;98410.84;;;16.03;81.24
68859;BME280;55864;49.238;8.092;2023-08-06T02:54:11;98409.41;;;16.07;81.07
68859;BME280;55864;49.238;8.092;2023-08-06T02:56:11;98409.66;;;16.12;80.89
68859;BME280;55864;49.238;8.092;2023-08-06T02:58:28;98400.44;;;16.01;80.79
68859;BME280;55864;49.238;8.092;2023-08-06T03:00:46;98397.00;;;15.94;81.90
68859;BME280;55864;49.238;8.092;2023-08-06T03:02:48;98400.22;;;15.90;82.24
68859;BME280;55864;49.238;8.092;2023-08-06T03:04:57;98398.41;;;16.03;81.70
68859;BME280;55864;49.238;8.092;2023-08-06T03:07:01;98395.16;;;16.01;81.90
68859;BME280;55864;49.238;8.092;2023-08-06T03:09:10;98390.28;;;15.98;82.11
68859;BME280;55864;49.238;8.092;2023-08-06T03:11:10;98385.19;;;15.97;82.89
68859;BME280;55864;49.238;8.092;2023-08-06T03:13:11;98384.78;;;16.07;81.87
68859;BME280;55864;49.238;8.092;2023-08-06T03:15:13;98383.97;;;16.19;82.21
68859;BME280;55864;49.238;8.092;2023-08-06T03:17:16;98383.94;;;15.99;82.92
68859;BME280;55864;49.238;8.092;2023-08-06T03:19:17;98381.72;;;16.10;82.42
68859;BME280;55864;49.238;8.092;2023-08-06T03:21:17;98381.50;;;16.24;81.80
68859;BME280;55864;49.238;8.092;2023-08-06T03:23:18;98373.75;;;15.96;82.56
68859;BME280;55864;49.238;8.092;2023-08-06T03:25:19;98381.72;;;16.16;82.64
68859;BME280;55864;49.238;8.092;2023-08-06T03:27:22;98382.13;;;16.13;82.70
68859;BME280;55864;49.238;8.092;2023-08-06T03:29:25;98382.34;;;16.12;82.24
68859;BME280;55864;49.238;8.092;2023-08-06T03:31:28;98387.22;;;15.95;83.06
68859;BME280;55864;49.238;8.092;2023-08-06T03:33:29;98392.03;;;15.65;83.21
68859;BME280;55864;49.238;8.092;2023-08-06T03:35:30;98390.84;;;15.74;83.34
68859;BME280;55864;49.238;8.092;2023-08-06T03:37:32;98392.44;;;15.62;83.69
68859;BME280;55864;49.238;8.092;2023-08-06T03:39:32;98393.84;;;15.52;85.41
68859;BME280;55864;49.238;8.092;2023-08-06T03:41:33;98385.34;;;15.63;84.74
68859;BME280;55864;49.238;8.092;2023-08-06T03:43:34;98387.94;;;15.56;85.46
68859;BME280;55864;49.238;8.092;2023-08-06T03:45:37;98391.59;;;15.42;85.82
68859;BME280;55864;49.238;8.092;2023-08-06T03:47:39;98377.25;;;15.37;85.12
68859;BME280;55864;49.238;8.092;2023-08-06T03:49:40;98384.97;;;15.25;85.62
68859;BME280;55864;49.238;8.092;2023-08-06T03:51:41;98381.34;;;15.39;85.81
68859;BME280;55864;49.238;8.092;2023-08-06T03:53:42;98384.47;;;15.49;86.19
68859;BME280;55864;49.238;8.092;2023-08-06T03:55:42;98382.03;;;15.48;86.08
68859;BME280;55864;49.238;8.092;2023-08-06T03:57:43;98383.03;;;15.47;85.24
68859;BME280;55864;49.238;8.092;2023-08-06T03:59:43;98378.50;;;15.34;85.73
68859;BME280;55864;49.238;8.092;2023-08-06T04:01:44;98382.97;;;15.34;85.98
68859;BME280;55864;49.238;8.092;2023-08-06T04:03:46;98381.56;;;15.38;85.59
68859;BME280;55864;49.238;8.092;2023-08-06T04:05:46;98374.50;;;15.51;84.76
68859;BME280;55864;49.238;8.092;2023-08-06T04:07:48;98386.66;;;15.39;84.95
68859;BME280;55864;49.238;8.092;2023-08-06T04:09:52;98383.16;;;15.32;85.05
68859;BME280;55864;49.238;8.092;2023-08-06T04:11:53;98385.03;;;15.38;84.70
68859;BME280;55864;49.238;8.092;2023-08-06T04:13:54;98381.09;;;15.28;85.29
68859;BME280;55864;49.238;8.092;2023-08-06T04:15:54;98383.75;;;15.28;85.55
68859;BME280;55864;49.238;8.092;2023-08-06T04:17:56;98382.34;;;15.25;85.78
68859;BME280;55864;49.238;8.092;2023-08-06T04:19:57;98386.56;;;15.13;86.15
68859;BME280;55864;49.238;8.092;2023-08-06T04:21:58;98385.59;;;15.27;86.16
68859;BME280;55864;49.238;8.092;2023-08-06T04:23:59;98384.53;;;15.22;86.34
68859;BME280;55864;49.238;8.092;2023-08-06T04:26:00;98389.28;;;15.33;85.60
68859;BME280;55864;49.238;8.092;2023-08-06T04:28:06;98387.63;;;15.32;85.62
68859;BME280;55864;49.238;8.092;2023-08-06T04:30:08;98399.66;;;15.41;86.10
68859;BME280;55864;49.238;8.092;2023-08-06T04:32:10;98391.47;;;15.29;85.89
68859;BME280;55864;49.238;8.092;2023-08-06T04:34:15;98389.88;;;15.28;86.19
68859;BME280;55864;49.238;8.092;2023-08-06T04:36:17;98392.69;;;15.20;86.49
68859;BME280;55864;49.238;8.092;2023-08-06T04:38:19;98390.44;;;15.17;86.97
68859;BME280;55864;49.238;8.092;2023-08-06T04:40:19;98386.59;;;15.20;86.32
68859;BME280;55864;49.238;8.092;2023-08-06T04:42:20;98387.72;;;15.45;85.79
68859;BME280;55864;49.238;8.092;2023-08-06T04:44:21;98391.69;;;15.28;86.57
68859;BME280;55864;49.238;8.092;2023-08-06T04:46:21;98397.56;;;15.17;86.67
68859;BME280;55864;49.238;8.092;2023-08-06T04:48:22;98389.69;;;15.36;87.96
68859;BME280;55864;49.238;8.092;2023-08-06T04:50:23;98389.19;;;15.13;87.32
68859;BME280;55864;49.238;8.092;2023-08-06T04:52:24;98395.53;;;14.78;88.25
68859;BME280;55864;49.238;8.092;2023-08-06T04:54:25;98396.22;;;14.93;88.84
68859;BME280;55864;49.238;8.092;2023-08-06T04:56:26;98391.72;;;14.87;89.68
68859;BME280;55864;49.238;8.092;2023-08-06T04:58:26;98388.94;;;15.01;89.75
68859;BME280;55864;49.238;8.092;2023-08-06T05:00:27;98398.94;;;15.13;88.98
68859;BME280;55864;49.238;8.092;2023-08-06T05:02:27;98397.13;;;15.13;89.43
68859;BME280;55864;49.238;8.092;2023-08-06T05:04:28;98401.59;;;15.13;88.90
68859;BME280;55864;49.238;8.092;2023-08-06T05:06:28;98394.69;;;15.12;89.88
68859;BME280;55864;49.238;8.092;2023-08-06T05:08:30;98402.28;;;15.28;89.17
68859;BME280;55864;49.238;8.092;2023-08-06T05:10:31;98401.47;;;15.27;88.45
68859;BME280;55864;49.238;8.092;2023-08-06T05:12:31;98408.19;;;15.23;88.48
68859;BME280;55864;49.238;8.092;2023-08-06T05:14:32;98403.31;;;15.33;88.01
68859;BME280;55864;49.238;8.092;2023-08-06T05:16:32;98399.63;;;15.28;89.33
68859;BME280;55864;49.238;8.092;2023-08-06T05:18:32;98402.41;;;15.13;88.58
68859;BME280;55864;49.238;8.092;2023-08-06T05:20:36;98405.91;;;15.20;87.14
68859;BME280;55864;49.238;8.092;2023-08-06T05:22:36;98411.44;;;15.32;86.88
68859;BME280;55864;49.238;8.092;2023-08-06T05:24:38;98407.06;;;15.45;86.44
68859;BME280;55864;49.238;8.092;2023-08-06T05:26:39;98403.13;;;15.35;86.92
68859;BME280;55864;49.238;8.092;2023-08-06T05:28:39;98406.97;;;15.32;86.72
68859;BME280;55864;49.238;8.092;2023-08-06T05:30:40;98404.50;;;15.18;86.98
68859;BME280;55864;49.238;8.092;2023-08-06T05:32:40;98402.25;;;15.21;87.62
68859;BME280;55864;49.238;8.092;2023-08-06T05:34:41;98404.91;;;15.28;88.37
68859;BME280;55864;49.238;8.092;2023-08-06T05:36:41;98398.44;;;15.30;88.10
68859;BME280;55864;49.238;8.092;2023-08-06T05:38:42;98405.56;;;15.36;87.45
68859;BME280;55864;49.238;8.092;2023-08-06T05:40:44;98402.47;;;15.26;88.92
68859;BME280;55864;49.238;8.092;2023-08-06T05:42:44;98402.03;;;15.16;87.95
68859;BME280;55864;49.238;8.092;2023-08-06T05:44:45;98397.19;;;15.20;88.34
68859;BME280;55864;49.238;8.092;2023-08-06T05:46:45;98398.44;;;15.30;88.03
68859;BME280;55864;49.238;8.092;2023-08-06T05:48:46;98403.50;;;15.32;88.29
68859;BME280;55864;49.238;8.092;2023-08-06T05:50:46;98408.97;;;15.24;88.04
68859;BME280;55864;49.238;8.092;2023-08-06T05:52:47;98400.66;;;15.27;87.94
68859;BME280;55864;49.238;8.092;2023-08-06T05:54:47;98407.75;;;15.20;88.11
68859;BME280;55864;49.238;8.092;2023-08-06T05:56:49;98408.09;;;15.44;88.26
68859;BME280;55864;49.238;8.092;2023-08-06T05:58:50;98402.84;;;15.57;87.53
68859;BME280;55864;49.238;8.092;2023-08-06T06:00:51;98408.09;;;15.44;86.86
68859;BME280;55864;49.238;8.092;2023-08-06T06:02:51;98404.00;;;15.42;87.47
68859;BME280;55864;49.238;8.092;2023-08-06T06:04:52;98418.06;;;15.42;87.13
68859;BME280;55864;49.238;8.092;2023-08-06T06:06:52;98411.25;;;15.27;87.62
68859;BME280;55864;49.238;8.092;2023-08-06T06:08:53;98409.00;;;15.30;87.36
68859;BME280;55864;49.238;8.092;2023-08-06T06:10:54;98414.66;;;15.21;87.98
68859;BME280;55864;49.238;8.092;2023-08-06T06:12:55;98407.50;;;15.55;86.87
68859;BME280;55864;49.238;8.092;2023-08-06T06:14:56;98407.59;;;15.41;87.62
68859;BME280;55864;49.238;8.092;2023-08-06T06:16:56;98414.63;;;15.55;87.76
68859;BME280;55864;49.238;8.092;2023-08-06T06:18:57;98418.09;;;15.62;87.96
68859;BME280;55864;49.238;8.092;2023-08-06T06:20:58;98417.47;;;15.60;87.69
68859;BME280;55864;49.238;8.092;2023-08-06T06:22:58;98422.59;;;15.68;87.76
68859;BME280;55864;49.238;8.092;2023-08-06T06:24:59;98429.09;;;15.65;88.43
68859;BME280;55864;49.238;8.092;2023-08-06T06:27:00;98425.31;;;15.34;90.29
68859;BME280;55864;49.238;8.092;2023-08-06T06:29:02;98428.91;;;15.60;90.16
68859;BME280;55864;49.238;8.092;2023-08-06T06:31:02;98423.47;;;15.34;89.44
68859;BME280;55864;49.238;8.092;2023-08-06T06:33:03;98431.94;;;15.57;89.79
68859;BME280;55864;49.238;8.092;2023-08-06T06:35:04;98435.91;;;15.87;88.45
68859;BME280;55864;49.238;8.092;2023-08-06T06:37:05;98438.97;;;15.97;87.26
68859;BME280;55864;49.238;8.092;2023-08-06T06:39:06;98442.63;;;16.03;87.16
68859;BME280;55864;49.238;8.092;2023-08-06T06:41:06;98430.41;;;15.89;87.41
68859;BME280;55864;49.238;8.092;2023-08-06T06:43:07;98436.94;;;16.06;87.63
68859;BME280;55864;49.238;8.092;2023-08-06T06:45:09;98434.47;;;15.85;86.22
68859;BME280;55864;49.238;8.092;2023-08-06T06:47:10;98420.84;;;16.08;86.58
68859;BME280;55864;49.238;8.092;2023-08-06T06:49:10;98436.28;;;15.84;87.18
68859;BME280;55864;49.238;8.092;2023-08-06T06:51:11;98436.94;;;15.93;87.79
68859;BME280;55864;49.238;8.092;2023-08-06T06:53:13;98435.06;;;15.93;88.21
68859;BME280;55864;49.238;8.092;2023-08-06T06:55:13;98427.97;;;16.07;88.41
68859;BME280;55864;49.238;8.092;2023-08-06T06:57:14;98434.72;;;16.10;87.85
68859;BME280;55864;49.238;8.092;2023-08-06T06:59:14;98440.22;;;16.15;87.98
68859;BME280;55864;49.238;8.092;2023-08-06T07:01:16;98438.56;;;16.20;86.18
68859;BME280;55864;49.238;8.092;2023-08-06T07:03:17;98432.84;;;15.90;86.44
68859;BME280;55864;49.238;8.092;2023-08-06T07:05:17;98431.81;;;15.85;88.64
68859;BME280;55864;49.238;8.092;2023-08-06T07:07:18;98440.34;;;15.74;87.03
68859;BME280;55864;49.238;8.092;2023-08-06T07:09:18;98444.38;;;15.63;87.62
68859;BME280;55864;49.238;8.092;2023-08-06T07:11:19;98448.88;;;15.69;88.31
68859;BME280;55864;49.238;8.092;2023-08-06T07:13:19;98450.22;;;15.46;89.02
68859;BME280;55864;49.238;8.092;2023-08-06T07:15:20;98437.91;;;15.72;90.69
68859;BME280;55864;49.238;8.092;2023-08-06T07:17:22;98442.59;;;15.77;90.93
68859;BME280;55864;49.238;8.092;2023-08-06T07:19:23;98445.84;;;15.72;92.22
68859;BME280;55864;49.238;8.092;2023-08-06T07:21:23;98445.22;;;15.77;90.93
68859;BME280;55864;49.238;8.092;2023-08-06T07:23:25;98446.22;;;15.69;91.35
68859;BME280;55864;49.238;8.092;2023-08-06T07:25:26;98446.84;;;15.71;91.35
68859;BME280;55864;49.238;8.092;2023-08-06T07:27:27;98456.84;;;15.76;91.44
68859;BME280;55864;49.238;8.092;2023-08-06T07:29:27;98453.38;;;15.75;91.34
68859;BME280;55864;49.238;8.092;2023-08-06T07:31:28;98449.91;;;15.68;91.06
68859;BME280;55864;49.238;8.092;2023-08-06T07:33:30;98461.09;;;15.23;91.92
68859;BME280;55864;49.238;8.092;2023-08-06T07:35:30;98466.38;;;15.57;92.01
68859;BME280;55864;49.238;8.092;2023-08-06T07:37:31;98465.56;;;15.63;91.05
68859;BME280;55864;49.238;8.092;2023-08-06T07:39:31;98474.34;;;15.70;91.37
68859;BME280;55864;49.238;8.092;2023-08-06T07:41:32;98463.88;;;15.56;91.67
68859;BME280;55864;49.238;8.092;2023-08-06T07:43:32;98471.00;;;15.49;92.85
68859;BME280;55864;49.238;8.092;2023-08-06T07:45:34;98461.84;;;15.51;92.05
68859;BME280;55864;49.238;8.092;2023-08-06T07:47:34;98466.94;;;15.53;92.12
68859;BME280;55864;49.238;8.092;2023-08-06T07:49:36;98467.03;;;15.72;90.83
68859;BME280;55864;49.238;8.092;2023-08-06T07:51:37;98454.03;;;15.90;89.75
68859;BME280;55864;49.238;8.092;2023-08-06T07:53:37;98453.84;;;16.05;89.08
68859;BME280;55864;49.238;8.092;2023-08-06T07:55:38;98452.59;;;15.88;88.84
68859;BME280;55864;49.238;8.092;2023-08-06T07:57:38;98460.16;;;15.97;89.63
68859;BME280;55864;49.238;8.092;2023-08-06T07:59:39;98454.06;;;15.97;90.15
68859;BME280;55864;49.238;8.092;2023-08-06T08:01:39;98460.56;;;15.94;89.14
68859;BME280;55864;49.238;8.092;2023-08-06T08:03:39;98464.25;;;16.13;90.67
68859;BME280;55864;49.238;8.092;2023-08-06T08:05:42;98464.69;;;16.10;89.70
68859;BME280;55864;49.238;8.092;2023-08-06T08:07:42;98466.31;;;16.18;88.78
68859;BME280;55864;49.238;8.092;2023-08-06T08:09:43;98461.88;;;16.51;90.22
68859;BME280;55864;49.238;8.092;2023-08-06T08:11:43;98454.94;;;16.56;88.49
68859;BME280;55864;49.238;8.092;2023-08-06T08:13:44;98457.19;;;16.53;89.62
68859;BME280;55864;49.238;8.092;2023-08-06T08:15:45;98464.53;;;16.57;89.22
68859;BME280;55864;49.238;8.092;2023-08-06T08:17:45;98466.31;;;16.24;87.47
68859;BME280;55864;49.238;8.092;2023-08-06T08:19:45;98461.84;;;16.38;88.74
68859;BME280;55864;49.238;8.092;2023-08-06T08:21:47;98452.88;;;16.39;89.28
68859;BME280;55864;49.238;8.092;2023-08-06T08:23:48;98461.78;;;16.05;89.38
68859;BME280;55864;49.238;8.092;2023-08-06T08:25:48;98456.34;;;16.20;89.31
68859;BME280;55864;49.238;8.092;2023-08-06T08:27:49;98458.59;;;16.29;89.26
68859;BME280;55864;49.238;8.092;2023-08-06T08:29:49;98462.44;;;16.20;89.44
68859;BME280;55864;49.238;8.092;2023-08-06T08:31:50;98445.75;;;16.52;89.21
68859;BME280;55864;49.238;8.092;2023-08-06T08:33:51;98441.28;;;16.53;88.60
68859;BME280;55864;49.238;8.092;2023-08-06T08:35:51;98443.09;;;16.72;87.25
68859;BME280;55864;49.238;8.092;2023-08-06T08:37:53;98444.50;;;16.87;82.34
68859;BME280;55864;49.238;8.092;2023-08-06T08:39:54;98444.66;;;17.06;80.94
68859;BME280;55864;49.238;8.092;2023-08-06T08:41:55;98443.13;;;17.36;81.43
68859;BME280;55864;49.238;8.092;2023-08-06T08:43:56;98432.25;;;17.57;80.91
68859;BME280;55864;49.238;8.092;2023-08-06T08:45:57;98435.16;;;17.49;77.84
68859;BME280;55864;49.238;8.092;2023-08-06T08:47:57;98435.50;;;17.65;79.08
68859;BME280;55864;49.238;8.092;2023-08-06T08:49:59;98429.38;;;17.58;78.76
68859;BME280;55864;49.238;8.092;2023-08-06T08:52:01;98433.25;;;17.62;78.28
68859;BME280;55864;49.238;8.092;2023-08-06T08:54:04;98441.50;;;17.48;76.54
68859;BME280;55864;49.238;8.092;2023-08-06T08:56:04;98438.44;;;17.44;76.23
68859;BME280;55864;49.238;8.092;2023-08-06T08:58:05;98443.31;;;17.54;76.61
68859;BME280;55864;49.238;8.092;2023-08-06T09:00:06;98447.88;;;17.27;76.19
68859;BME280;55864;49.238;8.092;2023-08-06T09:02:09;98445.06;;;17.09;76.94
68859;BME280;55864;49.238;8.092;2023-08-06T09:04:12;98450.91;;;17.37;79.46
68859;BME280;55864;49.238;8.092;2023-08-06T09:06:13;98450.94;;;17.24;80.45
68859;BME280;55864;49.238;8.092;2023-08-06T09:08:18;98443.41;;;17.21;80.42
68859;BME280;55864;49.238;8.092;2023-08-06T09:10:20;98452.16;;;17.28;82.74
68859;BME280;55864;49.238;8.092;2023-08-06T09:12:22;98459.16;;;17.16;82.72
68859;BME280;55864;49.238;8.092;2023-08-06T09:14:22;98459.41;;;16.95;83.23
68859;BME280;55864;49.238;8.092;2023-08-06T09:16:23;98459.19;;;16.90;84.11
68859;BME280;55864;49.238;8.092;2023-08-06T09:18:29;98460.22;;;16.76;85.66
68859;BME280;55864;49.238;8.092;2023-08-06T09:20:34;98452.28;;;16.69;85.11
68859;BME280;55864;49.238;8.092;2023-08-06T09:22:34;98459.81;;;16.66;85.94
68859;BME280;55864;49.238;8.092;2023-08-06T09:24:38;98458.41;;;16.63;85.93
68859;BME280;55864;49.238;8.092;2023-08-06T09:26:41;98472.28;;;16.59;85.04
68859;BME280;55864;49.238;8.092;2023-08-06T09:28:42;98446.56;;;16.53;85.19
68859;BME280;55864;49.238;8.092;2023-08-06T09:30:42;98459.44;;;16.56;85.50
68859;BME280;55864;49.238;8.092;2023-08-06T09:32:47;98456.56;;;16.51;86.09
68859;BME280;55864;49.238;8.092;2023-08-06T09:34:55;98459.03;;;16.59;85.67
68859;BME280;55864;49.238;8.092;2023-08-06T09:36:56;98463.09;;;16.55;85.61
68859;BME280;55864;49.238;8.092;2023-08-06T09:38:57;98463.31;;;16.53;83.79
68859;BME280;55864;49.238;8.092;2023-08-06T09:40:57;98467.19;;;16.57;84.47
68859;BME280;55864;49.238;8.092;2023-08-06T09:42:59;98471.44;;;16.71;83.41
68859;BME280;55864;49.238;8.092;2023-08-06T09:45:05;98474.50;;;16.81;82.57
68859;BME280;55864;49.238;8.092;2023-08-06T09:47:06;98476.56;;;16.79;82.61
68859;BME280;55864;49.238;8.092;2023-08-06T09:49:07;98481.03;;;17.05;81.92
68859;BME280;55864;49.238;8.092;2023-08-06T09:51:08;98478.75;;;17.02;80.53
68859;BME280;55864;49.238;8.092;2023-08-06T09:53:09;98479.97;;;17.06;80.64
68859;BME280;55864;49.238;8.092;2023-08-06T09:55:10;98494.28;;;16.92;80.06
68859;BME280;55864;49.238;8.092;2023-08-06T09:57:12;98487.16;;;16.99;81.15
68859;BME280;55864;49.238;8.092;2023-08-06T09:59:14;98487.53;;;17.09;80.89
68859;BME280;55864;49.238;8.092;2023-08-06T10:01:16;98502.41;;;17.17;82.40
68859;BME280;55864;49.238;8.092;2023-08-06T10:03:18;98494.44;;;17.23;80.49
68859;BME280;55864;49.238;8.092;2023-08-06T10:05:19;98506.47;;;17.32;81.05
68859;BME280;55864;49.238;8.092;2023-08-06T10:07:20;98511.59;;;17.21;81.54
68859;BME280;55864;49.238;8.092;2023-08-06T10:09:21;98510.81;;;17.20;80.55
68859;BME280;55864;49.238;8.092;2023-08-06T10:11:23;98514.91;;;17.03;81.55
68859;BME280;55864;49.238;8.092;2023-08-06T10:13:24;98518.97;;;16.92;81.62
68859;BME280;55864;49.238;8.092;2023-08-06T10:15:28;98526.13;;;16.85;82.04
68859;BME280;55864;49.238;8.092;2023-08-06T10:17:31;98520.22;;;16.70;81.15
68859;BME280;55864;49.238;8.092;2023-08-06T10:19:33;98522.84;;;16.64;82.00
68859;BME280;55864;49.238;8.092;2023-08-06T10:21:34;98529.19;;;16.63;83.26
68859;BME280;55864;49.238;8.092;2023-08-06T10:23:36;98532.25;;;16.66;84.20
68859;BME280;55864;49.238;8.092;2023-08-06T10:25:40;98527.53;;;16.75;84.40
68859;BME280;55864;49.238;8.092;2023-08-06T10:27:54;98537.38;;;16.74;83.78
68859;BME280;55864;49.238;8.092;2023-08-06T10:29:55;98541.84;;;16.74;83.49
68859;BME280;55864;49.238;8.092;2023-08-06T10:31:59;98539.19;;;16.67;84.52
68859;BME280;55864;49.238;8.092;2023-08-06T10:33:59;98539.19;;;16.67;82.82
68859;BME280;55864;49.238;8.092;2023-08-06T10:36:01;98537.75;;;16.52;82.05
68859;BME280;55864;49.238;8.092;2023-08-06T10:38:07;98542.41;;;16.37;83.31
68859;BME280;55864;49.238;8.092;2023-08-06T10:40:09;98542.59;;;16.42;83.34
68859;BME280;55864;49.238;8.092;2023-08-06T10:42:19;98559.56;;;16.60;82.84
68859;BME280;55864;49.238;8.092;2023-08-06T10:44:20;98560.19;;;16.49;83.70